createdAt,value
2022-08-01T00:04:29.111Z,100342.31
2022-08-01T00:14:32.024Z,100355.13
2022-08-01T00:24:35.224Z,100361.59
2022-08-01T00:34:36.643Z,100364.28
2022-08-01T00:44:38.012Z,100366.94
2022-08-01T00:54:39.506Z,100370.28
2022-08-01T01:04:40.862Z,100379.22
2022-08-01T01:14:45.705Z,100373.56
2022-08-01T01:24:47.102Z,100382.88
2022-08-01T01:34:48.492Z,100389.69
2022-08-01T01:44:49.784Z,100381.97
2022-08-01T01:54:51.115Z,100386.50
2022-08-01T02:04:53.603Z,100387.72
2022-08-01T02:14:54.921Z,100391.03
2022-08-01T02:24:56.291Z,100390.84
2022-08-01T02:34:57.628Z,100398.41
2022-08-01T02:44:59.506Z,100403.72
2022-08-01T02:55:00.943Z,100408.19
2022-08-01T03:05:02.288Z,100406.97
2022-08-01T03:15:03.626Z,100403.03
2022-08-01T03:25:05.019Z,100400.28
2022-08-01T03:35:06.344Z,100411.38
2022-08-01T03:45:07.685Z,100410.44
2022-08-01T03:55:14.605Z,100406.56
2022-08-01T04:05:16.068Z,100402.69
2022-08-01T04:15:17.454Z,100410.16
2022-08-01T04:25:18.802Z,100410.78
2022-08-01T04:35:23.557Z,100419.59
2022-08-01T04:45:41.461Z,100427.97
2022-08-01T04:55:42.816Z,100437.50
2022-08-01T05:05:44.201Z,100429.63
2022-08-01T05:15:45.544Z,100426.91
2022-08-01T05:25:56.711Z,100433.31
2022-08-01T05:35:59.084Z,100431.47
2022-08-01T05:46:00.496Z,100430.47
2022-08-01T05:56:02.843Z,100438.34
2022-08-01T06:06:04.191Z,100436.53
2022-08-01T06:16:05.565Z,100451.66
2022-08-01T06:26:06.977Z,100451.34
2022-08-01T06:36:08.320Z,100453.94
2022-08-01T06:46:09.663Z,100442.50
2022-08-01T06:56:11.028Z,100460.63
2022-08-01T07:06:12.314Z,100452.34
2022-08-01T07:16:13.821Z,100457.28
2022-08-01T07:26:15.128Z,100438.66
2022-08-01T07:36:16.450Z,100449.38
2022-08-01T07:46:17.771Z,100439.56
2022-08-01T07:56:19.047Z,100435.91
2022-08-01T08:06:20.384Z,100442.63
2022-08-01T08:16:22.079Z,100423.06
2022-08-01T08:26:24.769Z,100429.47
2022-08-01T08:36:30.778Z,100429.13
2022-08-01T08:46:33.821Z,100416.94
2022-08-01T08:56:35.417Z,100412.66
2022-08-01T09:06:36.768Z,100414.25
2022-08-01T09:16:38.173Z,100417.38
2022-08-01T09:26:39.455Z,100408.66
2022-08-01T09:36:41.029Z,100421.97
2022-08-01T09:46:42.484Z,100422.69
2022-08-01T09:56:43.877Z,100432.72
2022-08-01T10:06:45.981Z,100422.53
2022-08-01T10:16:53.217Z,100422.25
2022-08-01T10:27:09.242Z,100415.78
2022-08-01T10:37:11.065Z,100398.00
2022-08-01T10:47:12.355Z,100401.38
2022-08-01T10:57:13.694Z,100400.13
2022-08-01T11:07:16.737Z,100386.97
2022-08-01T11:17:18.098Z,100381.31
2022-08-01T11:27:23.397Z,100377.59
2022-08-01T11:37:26.112Z,100376.97
2022-08-01T11:47:31.697Z,100354.72
2022-08-01T11:57:39.037Z,100353.47
2022-08-01T12:07:41.480Z,100347.72
2022-08-01T12:17:45.781Z,100328.69
2022-08-01T12:27:58.619Z,100332.91
2022-08-01T12:38:00.011Z,100321.31
2022-08-01T12:48:01.869Z,100335.06
2022-08-01T12:58:03.218Z,100324.72
2022-08-01T13:08:07.215Z,100318.78
2022-08-01T13:18:08.801Z,100316.63
2022-08-01T13:28:10.169Z,100317.81
2022-08-01T13:38:11.534Z,100322.19
2022-08-01T13:48:18.527Z,100302.03
2022-08-01T13:58:20.487Z,100302.19
2022-08-01T14:08:25.252Z,100297.91
2022-08-01T14:18:26.781Z,100301.72
2022-08-01T14:28:29.628Z,100298.94
2022-08-01T14:38:33.522Z,100305.72
2022-08-01T14:48:35.737Z,100306.88
2022-08-01T14:58:37.012Z,100307.41
2022-08-01T15:08:38.354Z,100306.00
2022-08-01T15:18:39.688Z,100311.91
2022-08-01T15:28:41.047Z,100311.38
2022-08-01T15:38:42.305Z,100298.44
2022-08-01T15:48:44.501Z,100309.88
2022-08-01T15:58:45.813Z,100303.56
2022-08-01T16:08:47.215Z,100322.78
2022-08-01T16:18:53.973Z,100320.00
2022-08-01T16:28:55.464Z,100307.69
2022-08-01T16:38:56.845Z,100320.91
2022-08-01T16:48:58.269Z,100317.50
2022-08-01T16:58:59.753Z,100308.47
2022-08-01T17:09:01.143Z,100316.03
2022-08-01T17:19:02.424Z,100323.84
2022-08-01T17:29:03.701Z,100311.97
2022-08-01T17:39:06.501Z,100318.19
2022-08-01T17:49:08.135Z,100333.34
2022-08-01T17:59:10.591Z,100351.16
2022-08-01T18:09:11.934Z,100350.94
2022-08-01T18:19:13.300Z,100356.19
2022-08-01T18:29:14.654Z,100358.41
2022-08-01T18:39:24.656Z,100356.66
2022-08-01T18:49:29.128Z,100358.38
2022-08-01T18:59:30.515Z,100364.69
2022-08-01T19:09:31.836Z,100372.84
2022-08-01T19:19:33.200Z,100391.69
2022-08-01T19:29:35.795Z,100408.13
2022-08-01T19:39:37.460Z,100417.56
2022-08-01T19:49:39.057Z,100437.31
2022-08-01T19:59:40.478Z,100434.75
2022-08-01T20:09:41.977Z,100444.19
2022-08-01T20:19:43.353Z,100449.25
2022-08-01T20:29:44.624Z,100448.78
2022-08-01T20:39:46.007Z,100466.28
2022-08-01T20:49:47.342Z,100454.75
2022-08-01T20:59:55.354Z,100452.44
2022-08-01T21:09:57.719Z,100463.00
2022-08-01T21:19:59.070Z,100475.34
2022-08-01T21:30:00.737Z,100496.50
2022-08-01T21:40:09.480Z,100494.00
2022-08-01T21:50:11.706Z,100496.00
2022-08-01T22:00:25.181Z,100504.81
2022-08-01T22:10:27.396Z,100506.06
2022-08-01T22:20:28.833Z,100512.63
2022-08-01T22:30:30.214Z,100525.19
2022-08-01T22:40:32.746Z,100516.59
2022-08-01T22:50:36.677Z,100517.13
2022-08-01T23:00:38.315Z,100514.81
2022-08-01T23:10:39.720Z,100517.84
2022-08-01T23:20:41.102Z,100513.19
2022-08-01T23:30:42.473Z,100524.56
2022-08-01T23:40:43.943Z,100516.84
2022-08-01T23:50:45.307Z,100521.56
